Time;durP1;ratioP1;P1;durP2;ratioP2;P2;SDS_P1;SDS_P2;PMS_P1;PMS_P2;Temp;Humidity;BMP_temperature;BMP_pressure;BME280_temperature;BME280_humidity;BME280_pressure;Samples;Min_cycle;Max_cycle;Signal;HPM_P1;HPM_P2
2021/11/05 00:04:05;;;;;;;5.22;2.75;;;7.30;99.90;;;;;;10351043;28;20058;-59
2021/11/05 00:09:07;;;;;;;6.38;2.75;;;7.30;99.90;;;;;;10353060;28;20496;-60
2021/11/05 00:14:09;;;;;;;7.15;3.28;;;7.20;99.90;;;;;;10321527;28;20057;-58
2021/11/05 00:19:10;;;;;;;4.72;2.53;;;7.10;99.90;;;;;;10345534;28;20053;-59
2021/11/05 00:24:12;;;;;;;8.43;3.17;;;7.10;99.90;;;;;;10332978;28;20120;-59
2021/11/05 00:29:14;;;;;;;6.38;3.08;;;7.10;99.90;;;;;;10360547;28;20084;-59
2021/11/05 00:34:17;;;;;;;6.40;2.80;;;7.00;99.90;;;;;;10346085;28;20131;-59
2021/11/05 00:39:19;;;;;;;8.80;3.53;;;7.10;99.90;;;;;;10344761;28;20551;-60
2021/11/05 00:44:21;;;;;;;5.93;2.67;;;7.00;99.90;;;;;;10348226;28;20138;-60
2021/11/05 00:49:23;;;;;;;6.35;3.25;;;7.10;99.90;;;;;;10352185;28;20123;-60
2021/11/05 00:54:24;;;;;;;8.23;3.28;;;7.10;99.90;;;;;;10353436;28;20082;-59
2021/11/05 00:59:26;;;;;;;8.38;2.90;;;7.10;99.90;;;;;;10311163;28;20046;-58
2021/11/05 01:04:28;;;;;;;5.20;2.47;;;7.10;99.90;;;;;;10325706;28;20567;-58
2021/11/05 01:09:30;;;;;;;7.13;3.10;;;7.10;99.90;;;;;;10302576;28;20108;-58
2021/11/05 01:14:31;;;;;;;8.18;2.75;;;7.10;99.90;;;;;;10330392;28;20045;-58
2021/11/05 01:19:33;;;;;;;7.43;3.45;;;7.10;99.90;;;;;;10330675;28;20045;-58
2021/11/05 01:24:35;;;;;;;7.35;3.42;;;7.10;99.90;;;;;;10328672;28;20160;-58
2021/11/05 01:29:36;;;;;;;8.18;3.35;;;7.10;99.90;;;;;;10326956;28;20077;-58
2021/11/05 01:34:38;;;;;;;7.57;3.45;;;7.10;99.90;;;;;;10327105;28;20162;-58
2021/11/05 01:39:40;;;;;;;6.15;3.00;;;7.20;99.90;;;;;;10324935;28;20100;-58
2021/11/05 01:44:42;;;;;;;7.95;3.70;;;7.20;99.90;;;;;;10330004;28;20480;-58
2021/11/05 01:49:44;;;;;;;7.85;3.42;;;7.20;99.90;;;;;;10329695;28;20062;-58
2021/11/05 01:54:46;;;;;;;7.22;2.85;;;7.20;99.90;;;;;;10327953;28;20049;-58
2021/11/05 01:59:52;;;;;;;8.25;3.70;;;7.20;99.90;;;;;;10329556;28;20089;-58
2021/11/05 02:04:54;;;;;;;7.20;3.47;;;7.30;99.90;;;;;;10346142;28;20081;-59
2021/11/05 02:09:57;;;;;;;7.25;3.35;;;7.30;99.90;;;;;;10351080;28;20065;-58
2021/11/05 02:14:59;;;;;;;8.65;3.55;;;7.30;99.90;;;;;;10349669;28;20053;-59
2021/11/05 02:20:04;;;;;;;8.63;3.67;;;7.30;99.90;;;;;;10347679;28;20435;-58
2021/11/05 02:25:07;;;;;;;6.55;3.05;;;7.30;99.90;;;;;;10352020;28;20055;-58
2021/11/05 02:30:10;;;;;;;7.15;3.40;;;7.30;99.90;;;;;;10337326;28;20088;-58
2021/11/05 02:35:14;;;;;;;6.95;3.25;;;7.40;99.90;;;;;;10335364;28;20099;-59
2021/11/05 02:40:17;;;;;;;7.35;2.97;;;7.40;99.90;;;;;;10339681;28;20499;-58
2021/11/05 02:45:19;;;;;;;9.07;3.97;;;7.40;99.90;;;;;;10346768;28;20497;-58
2021/11/05 02:50:21;;;;;;;8.32;3.80;;;7.40;99.90;;;;;;10339824;28;20559;-58
2021/11/05 02:55:23;;;;;;;8.60;4.05;;;7.40;99.90;;;;;;10342911;28;20062;-58
2021/11/05 03:00:24;;;;;;;10.10;4.30;;;7.40;99.90;;;;;;10349057;28;20060;-58
2021/11/05 03:05:26;;;;;;;9.90;3.90;;;7.30;99.90;;;;;;10352888;28;20057;-58
2021/11/05 03:10:28;;;;;;;8.82;3.67;;;7.30;99.90;;;;;;10351403;28;20086;-58
2021/11/05 03:15:30;;;;;;;9.20;3.90;;;7.40;99.90;;;;;;10332576;28;20057;-58
2021/11/05 03:20:32;;;;;;;9.80;4.43;;;7.30;99.90;;;;;;10340366;28;20054;-59
2021/11/05 03:25:34;;;;;;;9.02;4.13;;;7.30;99.90;;;;;;10344240;28;20100;-59
2021/11/05 03:30:36;;;;;;;9.65;4.03;;;7.30;99.90;;;;;;10339752;28;20104;-58
2021/11/05 03:35:38;;;;;;;10.70;4.32;;;7.30;99.90;;;;;;10301036;28;20104;-58
2021/11/05 03:40:40;;;;;;;11.00;4.35;;;7.20;99.90;;;;;;10334819;28;20085;-56
2021/11/05 03:45:42;;;;;;;8.48;4.13;;;7.20;99.90;;;;;;10345393;28;20038;-57
2021/11/05 03:50:44;;;;;;;10.15;3.63;;;7.10;99.90;;;;;;10345131;28;20068;-57
2021/11/05 03:55:46;;;;;;;11.98;4.97;;;7.10;99.90;;;;;;10348278;28;20481;-57
2021/11/05 04:00:47;;;;;;;11.30;4.82;;;7.10;99.90;;;;;;10345956;28;20042;-57
2021/11/05 04:05:49;;;;;;;8.18;4.03;;;7.00;99.90;;;;;;10345030;28;20077;-57
2021/11/05 04:10:52;;;;;;;12.32;5.32;;;7.10;99.90;;;;;;10338593;28;20144;-57
2021/11/05 04:15:54;;;;;;;12.73;5.40;;;7.10;99.90;;;;;;10352497;28;20049;-57
2021/11/05 04:20:56;;;;;;;16.20;7.03;;;7.20;99.90;;;;;;10355361;28;20042;-57
2021/11/05 04:25:58;;;;;;;18.30;8.05;;;7.20;99.90;;;;;;10336909;28;20050;-58
2021/11/05 04:31:01;;;;;;;17.58;7.38;;;7.20;99.90;;;;;;10343583;28;20070;-57
2021/11/05 04:36:04;;;;;;;15.38;6.07;;;7.20;99.90;;;;;;10343296;28;20101;-58
2021/11/05 04:41:05;;;;;;;13.35;5.57;;;7.20;99.90;;;;;;10360767;28;20488;-60
2021/11/05 04:46:08;;;;;;;11.38;4.57;;;7.20;99.90;;;;;;10352696;28;20464;-60
2021/11/05 04:51:10;;;;;;;10.90;5.07;;;7.20;99.90;;;;;;10327536;28;20050;-59
2021/11/05 04:56:12;;;;;;;14.52;5.45;;;7.20;99.90;;;;;;10355191;28;20045;-58
2021/11/05 05:01:14;;;;;;;13.70;4.75;;;7.20;99.90;;;;;;10318329;28;20096;-58
2021/11/05 05:06:16;;;;;;;9.00;4.63;;;7.20;99.90;;;;;;10301827;28;20042;-58
2021/11/05 05:11:18;;;;;;;9.82;4.63;;;7.20;99.90;;;;;;10311667;28;20621;-58
2021/11/05 05:16:19;;;;;;;7.78;4.25;;;7.20;99.90;;;;;;10302291;28;20123;-58
2021/11/05 05:21:21;;;;;;;10.35;5.20;;;7.20;99.90;;;;;;10300743;28;20105;-58
2021/11/05 05:26:23;;;;;;;15.20;5.55;;;7.20;99.90;;;;;;10310724;28;20117;-58
2021/11/05 05:31:26;;;;;;;10.52;5.05;;;7.30;99.90;;;;;;10302184;28;20054;-58
2021/11/05 05:36:27;;;;;;;13.70;5.93;;;7.30;99.90;;;;;;10310041;28;20116;-58
2021/11/05 05:41:29;;;;;;;12.45;5.25;;;7.30;99.90;;;;;;10319367;28;20058;-58
2021/11/05 05:46:31;;;;;;;15.27;5.80;;;7.20;99.90;;;;;;10310720;28;20220;-58
2021/11/05 05:51:33;;;;;;;16.73;5.78;;;7.20;99.90;;;;;;10310045;28;20375;-59
2021/11/05 05:56:35;;;;;;;16.92;7.30;;;7.10;99.90;;;;;;10302010;28;20120;-58
2021/11/05 06:01:37;;;;;;;14.23;5.68;;;7.10;99.90;;;;;;10294553;28;20081;-59
2021/11/05 06:06:39;;;;;;;14.52;6.53;;;7.10;99.90;;;;;;10301146;28;20077;-59
2021/11/05 06:11:40;;;;;;;16.88;7.30;;;7.20;99.90;;;;;;10313227;28;20452;-59
2021/11/05 06:16:42;;;;;;;15.70;6.15;;;7.20;99.90;;;;;;10301537;28;20112;-59
2021/11/05 06:21:44;;;;;;;16.05;6.88;;;7.20;99.90;;;;;;10304588;28;20542;-62
2021/11/05 06:26:45;;;;;;;18.80;6.68;;;7.20;99.90;;;;;;10309141;28;20041;-62
2021/11/05 06:31:47;;;;;;;16.77;6.65;;;7.20;99.90;;;;;;10303736;28;20127;-61
2021/11/05 06:36:49;;;;;;;17.92;6.55;;;7.20;99.90;;;;;;10316315;28;20052;-60
2021/11/05 06:41:51;;;;;;;15.38;6.07;;;7.30;99.90;;;;;;10299139;28;20118;-61
2021/11/05 06:46:53;;;;;;;14.55;6.22;;;7.30;99.90;;;;;;10303407;28;20105;-63
2021/11/05 06:51:55;;;;;;;16.35;6.93;;;7.40;99.90;;;;;;10305503;28;20575;-62
2021/11/05 06:56:57;;;;;;;17.38;7.15;;;7.40;99.90;;;;;;10296640;28;20066;-62
2021/11/05 07:01:58;;;;;;;17.70;6.45;;;7.50;99.90;;;;;;10269254;28;20497;-63
2021/11/05 07:07:00;;;;;;;19.50;6.80;;;7.60;99.90;;;;;;10288140;28;20117;-63
2021/11/05 07:12:02;;;;;;;16.00;7.25;;;7.60;99.90;;;;;;10289044;28;20513;-63
2021/11/05 07:17:04;;;;;;;19.58;7.00;;;7.70;99.90;;;;;;10275566;28;20061;-62
2021/11/05 07:22:05;;;;;;;14.45;7.03;;;7.80;99.90;;;;;;10281245;28;20078;-63
2021/11/05 07:27:07;;;;;;;22.73;8.43;;;7.80;99.90;;;;;;10255015;28;20498;-62
2021/11/05 07:32:10;;;;;;;18.55;7.47;;;7.90;99.90;;;;;;10257397;28;20059;-62
2021/11/05 07:37:16;;;;;;;18.55;7.95;;;8.00;99.90;;;;;;10273918;28;20109;-62
2021/11/05 07:42:18;;;;;;;18.95;7.85;;;8.10;99.90;;;;;;10252864;28;20058;-61
2021/11/05 07:47:23;;;;;;;20.73;8.57;;;8.20;99.90;;;;;;10281626;28;20061;-61
2021/11/05 07:52:24;;;;;;;19.67;7.50;;;8.20;99.90;;;;;;10262681;28;20494;-61
2021/11/05 07:57:26;;;;;;;17.88;7.97;;;8.20;99.90;;;;;;10262921;28;20050;-61
2021/11/05 08:02:28;;;;;;;18.85;9.02;;;8.30;99.90;;;;;;10334578;28;20488;-61
2021/11/05 08:07:30;;;;;;;18.88;8.20;;;8.40;99.90;;;;;;10343746;28;20837;-61
2021/11/05 08:12:32;;;;;;;17.13;7.60;;;8.50;99.90;;;;;;10343187;28;20495;-61
2021/11/05 08:17:33;;;;;;;18.25;7.93;;;8.50;99.90;;;;;;10350916;28;20053;-61
2021/11/05 08:22:35;;;;;;;17.65;7.35;;;8.60;99.90;;;;;;10350039;28;20050;-61
2021/11/05 08:27:38;;;;;;;27.30;9.18;;;8.70;99.90;;;;;;10332107;28;20112;-61
2021/11/05 08:32:40;;;;;;;19.88;7.22;;;8.90;99.90;;;;;;10333679;28;20045;-61
2021/11/05 08:37:43;;;;;;;23.92;9.13;;;8.90;99.90;;;;;;10341117;28;20050;-61
2021/11/05 08:42:45;;;;;;;25.70;8.73;;;8.80;99.90;;;;;;10349386;28;20562;-61
2021/11/05 08:47:47;;;;;;;22.80;8.95;;;8.90;99.90;;;;;;10344293;28;20073;-61
2021/11/05 08:52:49;;;;;;;21.10;8.43;;;9.00;99.90;;;;;;10332743;28;20153;-61
2021/11/05 08:57:51;;;;;;;19.10;8.77;;;9.10;99.90;;;;;;10346154;28;20463;-65
2021/11/05 09:02:53;;;;;;;21.65;8.55;;;9.20;99.90;;;;;;10357013;28;20046;-61
2021/11/05 09:07:55;;;;;;;25.33;9.55;;;9.40;99.90;;;;;;10348930;28;20060;-61
2021/11/05 09:12:57;;;;;;;21.75;8.07;;;9.70;99.90;;;;;;10336319;28;20509;-61
2021/11/05 09:18:01;;;;;;;22.65;8.93;;;10.00;99.90;;;;;;10349157;28;20139;-61
2021/11/05 09:23:03;;;;;;;16.65;7.15;;;10.20;99.90;;;;;;10338441;28;20061;-61
2021/11/05 09:28:05;;;;;;;20.48;8.07;;;10.30;99.90;;;;;;10352588;28;20057;-61
2021/11/05 09:33:07;;;;;;;19.73;8.45;;;10.10;99.90;;;;;;10338164;28;20041;-61
2021/11/05 09:38:08;;;;;;;21.85;9.38;;;10.00;99.90;;;;;;10342276;28;20058;-61
2021/11/05 09:43:11;;;;;;;18.42;7.88;;;10.00;99.90;;;;;;10404680;23;20114;-94
2021/11/05 09:48:27;;;;;;;18.03;7.80;;;10.10;99.90;;;;;;10434170;28;20052;-94
2021/11/05 09:53:44;;;;;;;19.52;8.27;;;10.30;99.90;;;;;;10377682;28;20294;-94
2021/11/05 09:59:00;;;;;;;20.35;8.02;;;10.50;99.90;;;;;;10413944;28;20076;-94
2021/11/05 10:04:02;;;;;;;24.55;7.70;;;10.60;99.90;;;;;;10402017;28;20032;-94
2021/11/05 10:09:24;;;;;;;20.38;8.13;;;10.70;99.90;;;;;;10444605;28;20108;-93
2021/11/05 10:14:43;;;;;;;19.83;8.45;;;10.60;99.90;;;;;;10413999;28;20123;-94
2021/11/05 10:19:58;;;;;;;23.33;7.32;;;10.70;99.90;;;;;;10427713;28;20049;-93
2021/11/05 10:25:24;;;;;;;16.30;7.07;;;10.50;99.90;;;;;;10425339;28;20407;-93
2021/11/05 10:30:29;;;;;;;17.45;7.43;;;10.30;99.90;;;;;;10437612;28;20048;-93
2021/11/05 10:35:38;;;;;;;19.33;8.13;;;10.20;99.90;;;;;;10388477;28;20475;-93
2021/11/05 10:40:42;;;;;;;;;;;10.20;99.90;;;;;;10433498;28;20060;-93
2021/11/05 10:45:59;;;;;;;20.52;7.50;;;10.20;99.90;;;;;;10401538;28;21974;-93
2021/11/05 10:51:12;;;;;;;15.68;7.43;;;10.30;99.90;;;;;;10365397;28;20052;-93
2021/11/05 10:56:20;;;;;;;17.30;7.85;;;10.30;99.90;;;;;;10432727;28;20583;-93
2021/11/05 11:01:23;;;;;;;20.10;6.97;;;10.40;99.90;;;;;;10420575;28;20062;-93
2021/11/05 11:06:50;;;;;;;17.80;5.97;;;10.40;99.90;;;;;;10404727;28;20102;-92
2021/11/05 11:11:54;;;;;;;17.55;6.65;;;10.40;99.90;;;;;;10440983;28;20051;-93
2021/11/05 11:17:00;;;;;;;13.73;5.88;;;10.50;99.90;;;;;;10422316;28;20522;-92
2021/11/05 11:22:05;;;;;;;6.15;2.30;;;10.70;98.80;;;;;;10467157;28;20044;-92
2021/11/05 11:27:10;;;;;;;6.22;1.83;;;10.60;96.10;;;;;;10446187;28;20053;-92
2021/11/05 11:32:27;;;;;;;3.97;1.58;;;10.80;95.70;;;;;;10379826;28;20472;-92
2021/11/05 11:37:31;;;;;;;4.82;2.28;;;10.70;93.90;;;;;;10435239;28;20053;-93
2021/11/05 11:42:34;;;;;;;5.53;1.85;;;10.70;94.60;;;;;;10346971;28;20053;-92
2021/11/05 11:47:55;;;;;;;4.80;1.90;;;10.70;94.10;;;;;;10400711;28;20088;-93
2021/11/05 11:53:01;;;;;;;5.53;2.53;;;10.70;93.70;;;;;;10412918;28;20084;-92
2021/11/05 11:58:16;;;;;;;6.03;2.15;;;10.80;93.40;;;;;;10423229;28;20107;-93
2021/11/05 12:03:28;;;;;;;5.43;2.30;;;11.00;93.80;;;;;;10397195;28;20053;-92
2021/11/05 12:08:42;;;;;;;6.97;3.10;;;11.30;93.20;;;;;;10428219;28;20067;-91
2021/11/05 12:13:48;;;;;;;9.05;3.92;;;11.50;93.20;;;;;;10404310;28;20143;-92
2021/11/05 12:24:26;;;;;;;8.75;3.53;;;11.60;91.80;;;;;;10382214;28;20518;-92
2021/11/05 12:29:35;;;;;;;9.10;3.75;;;11.70;91.70;;;;;;10395102;28;20061;-92
2021/11/05 12:34:36;;;;;;;7.00;3.28;;;11.70;92.70;;;;;;10399592;28;20675;-93
2021/11/05 12:39:41;;;;;;;9.68;4.38;;;11.90;92.40;;;;;;10422210;28;20068;-92
2021/11/05 12:45:01;;;;;;;10.40;4.35;;;11.90;91.90;;;;;;10414535;28;20061;-92
2021/11/05 12:50:03;;;;;;;8.13;3.47;;;12.00;91.50;;;;;;10440089;28;20076;-92
2021/11/05 12:55:05;;;;;;;9.65;4.22;;;11.90;91.60;;;;;;10442518;28;20128;-93
2021/11/05 13:00:10;;;;;;;7.13;3.70;;;12.00;91.60;;;;;;10414912;28;20063;-92
2021/11/05 13:05:12;;;;;;;9.35;3.45;;;12.10;90.80;;;;;;10434537;28;20080;-92
2021/11/05 13:10:29;;;;;;;5.68;3.05;;;12.10;91.10;;;;;;10426827;28;20057;-91
2021/11/05 13:15:34;;;;;;;11.57;4.18;;;12.00;91.90;;;;;;10438588;28;20125;-92
2021/11/05 13:21:22;;;;;;;7.75;3.42;;;11.80;91.20;;;;;;10428070;28;20099;-92
2021/11/05 13:26:33;;;;;;;6.95;2.50;;;11.80;91.50;;;;;;10432187;28;20055;-92
2021/11/05 13:31:35;;;;;;;6.78;2.17;;;11.70;91.30;;;;;;10435740;28;20500;-92
2021/11/05 13:36:37;;;;;;;5.78;2.30;;;11.80;91.50;;;;;;10408986;28;20064;-92
2021/11/05 13:41:38;;;;;;;3.28;1.45;;;11.80;91.40;;;;;;10449263;28;20060;-92
2021/11/05 13:46:52;;;;;;;3.00;1.30;;;11.80;90.90;;;;;;10442276;28;20076;-92
2021/11/05 13:51:54;;;;;;;4.07;1.23;;;11.80;90.60;;;;;;10420615;28;20048;-92
2021/11/05 13:56:58;;;;;;;2.55;0.88;;;11.80;91.80;;;;;;10377925;28;20057;-92
2021/11/05 14:02:04;;;;;;;2.92;0.80;;;11.80;91.50;;;;;;10424702;28;20053;-92
2021/11/05 14:07:11;;;;;;;7.90;1.30;;;11.80;91.20;;;;;;10405520;28;20045;-91
2021/11/05 14:12:15;;;;;;;;;;;11.80;92.10;;;;;;10418489;28;20077;-91
2021/11/05 14:17:20;;;;;;;4.88;1.00;;;11.70;92.30;;;;;;10387396;28;20414;-91
2021/11/05 14:22:36;;;;;;;3.25;1.45;;;11.60;92.30;;;;;;10452530;28;20124;-91
2021/11/05 14:27:38;;;;;;;4.00;1.23;;;11.50;92.80;;;;;;10417655;28;20136;-91
2021/11/05 14:32:41;;;;;;;4.88;1.15;;;11.40;93.00;;;;;;10425690;28;20065;-91
2021/11/05 14:37:52;;;;;;;3.45;1.30;;;11.40;93.10;;;;;;10424745;28;20135;-91
2021/11/05 14:43:08;;;;;;;;;;;11.20;93.30;;;;;;10439340;28;20060;-91
2021/11/05 14:48:21;;;;;;;2.45;0.80;;;11.10;93.60;;;;;;10415767;28;19924;-91
2021/11/05 14:53:29;;;;;;;4.00;1.20;;;11.10;93.30;;;;;;10461352;28;20562;-92
2021/11/05 14:58:37;;;;;;;5.03;0.95;;;10.90;93.70;;;;;;10447501;28;20135;-91
2021/11/05 15:03:51;;;;;;;4.55;1.30;;;10.90;93.40;;;;;;10450125;28;20060;-90
2021/11/05 15:08:54;;;;;;;3.03;1.30;;;10.90;94.10;;;;;;10403042;28;20139;-90
2021/11/05 15:14:00;;;;;;;4.65;1.77;;;10.80;94.20;;;;;;10468806;28;20132;-90
2021/11/05 15:19:04;;;;;;;4.27;1.93;;;10.80;95.10;;;;;;10392916;28;20794;-91
2021/11/05 15:24:06;;;;;;;3.75;1.88;;;10.80;94.90;;;;;;10422720;28;20061;-90
2021/11/05 15:29:08;;;;;;;4.30;1.83;;;10.70;95.00;;;;;;10459167;28;20044;-90
2021/11/05 15:34:10;;;;;;;4.40;1.92;;;10.70;95.20;;;;;;10473947;28;20068;-90
2021/11/05 15:39:12;;;;;;;3.45;1.52;;;10.70;95.40;;;;;;10414742;28;20068;-90
2021/11/05 15:44:14;;;;;;;3.35;1.90;;;10.60;95.10;;;;;;10432645;28;20056;-90
2021/11/05 15:49:16;;;;;;;3.65;1.73;;;10.60;95.50;;;;;;10432753;28;20113;-90
2021/11/05 15:54:18;;;;;;;5.82;1.90;;;10.50;96.10;;;;;;10468806;28;20087;-90
2021/11/05 15:59:20;;;;;;;8.27;1.90;;;10.50;96.90;;;;;;10400405;28;20143;-90
2021/11/05 16:04:22;;;;;;;3.58;2.03;;;10.40;97.50;;;;;;10447476;28;20057;-90
2021/11/05 16:09:25;;;;;;;7.20;1.95;;;10.40;97.10;;;;;;10480799;28;20499;-90
2021/11/05 16:14:27;;;;;;;7.47;2.05;;;10.30;97.40;;;;;;10465897;28;20059;-91
2021/11/05 16:19:30;;;;;;;15.82;1.95;;;10.30;97.40;;;;;;10452386;28;20053;-90
2021/11/05 16:24:33;;;;;;;5.18;1.90;;;10.10;97.70;;;;;;10418102;28;20056;-90
2021/11/05 16:29:35;;;;;;;3.25;1.35;;;10.00;97.90;;;;;;10445807;28;20144;-91
2021/11/05 16:34:37;;;;;;;3.72;1.40;;;9.90;98.30;;;;;;10441110;28;20124;-88
2021/11/05 16:39:39;;;;;;;5.28;2.50;;;9.80;97.80;;;;;;10432758;28;20531;-89
2021/11/05 16:44:45;;;;;;;4.15;2.10;;;9.50;99.50;;;;;;10434105;28;20056;-91
2021/11/05 16:49:48;;;;;;;10.68;3.45;;;9.30;99.90;;;;;;10473694;28;20081;-90
2021/11/05 16:54:51;;;;;;;11.98;5.07;;;9.10;99.90;;;;;;10468727;28;20053;-91
2021/11/05 16:59:53;;;;;;;10.05;4.15;;;8.90;99.90;;;;;;10447809;28;20073;-90
2021/11/05 17:04:55;;;;;;;11.20;4.75;;;8.70;99.90;;;;;;10462350;28;20072;-91
2021/11/05 17:09:57;;;;;;;6.65;3.92;;;8.60;99.90;;;;;;10443922;28;20076;-91
2021/11/05 17:15:00;;;;;;;5.85;2.90;;;8.40;99.90;;;;;;10438701;28;20077;-91
2021/11/05 17:20:07;;;;;;;5.95;2.45;;;8.40;99.90;;;;;;10461037;28;20056;-90
2021/11/05 17:25:18;;;;;;;4.85;2.20;;;8.30;99.90;;;;;;10453729;28;20061;-92
2021/11/05 17:30:25;;;;;;;5.15;1.77;;;8.20;99.90;;;;;;10345532;28;20045;-92
2021/11/05 17:35:27;;;;;;;7.75;2.00;;;8.20;99.90;;;;;;10414304;28;20076;-90
2021/11/05 17:40:29;;;;;;;5.05;2.25;;;8.10;99.90;;;;;;10417144;28;20048;-91
2021/11/05 17:45:36;;;;;;;4.55;1.85;;;8.10;99.90;;;;;;10413036;28;20057;-91
2021/11/05 17:50:40;;;;;;;7.32;3.65;;;8.00;99.90;;;;;;10418161;28;20087;-90
2021/11/05 17:55:42;;;;;;;11.00;5.05;;;8.00;99.90;;;;;;10415475;28;20061;-91
2021/11/05 18:00:45;;;;;;;9.25;3.40;;;7.90;99.90;;;;;;10432108;28;20053;-91
2021/11/05 18:05:50;;;;;;;10.35;3.33;;;7.80;99.90;;;;;;10429576;28;20140;-91
2021/11/05 18:10:53;;;;;;;9.82;3.75;;;7.70;99.90;;;;;;10447577;28;20442;-91
2021/11/05 18:15:55;;;;;;;8.27;3.35;;;7.60;99.90;;;;;;10456861;28;20048;-91
2021/11/05 18:20:56;;;;;;;7.82;3.33;;;7.50;99.90;;;;;;10411014;28;20049;-91
2021/11/05 18:25:58;;;;;;;6.35;2.58;;;7.40;99.90;;;;;;10439035;23;20045;-57
2021/11/05 18:31:00;;;;;;;5.35;2.38;;;7.20;99.90;;;;;;10406665;28;20072;-57
2021/11/05 18:36:02;;;;;;;5.82;2.20;;;7.20;99.90;;;;;;10427676;28;22159;-58
2021/11/05 18:41:03;;;;;;;6.88;2.67;;;7.10;99.90;;;;;;10423402;28;20049;-58
2021/11/05 18:46:05;;;;;;;7.10;2.50;;;7.00;99.90;;;;;;10426475;28;20072;-58
2021/11/05 18:51:07;;;;;;;8.48;2.88;;;7.00;99.90;;;;;;10422929;28;20057;-58
2021/11/05 18:56:09;;;;;;;7.13;2.80;;;7.00;99.90;;;;;;10423699;28;20072;-58
2021/11/05 19:01:11;;;;;;;5.60;2.45;;;7.10;99.90;;;;;;10421794;28;20119;-58
2021/11/05 19:06:14;;;;;;;7.90;3.38;;;7.10;99.90;;;;;;10422390;28;20104;-58
2021/11/05 19:11:16;;;;;;;9.98;3.17;;;7.20;99.90;;;;;;10423911;28;20085;-59
2021/11/05 19:16:18;;;;;;;6.53;2.40;;;7.30;99.90;;;;;;10405453;28;20049;-58
2021/11/05 19:21:22;;;;;;;9.40;3.72;;;7.30;99.90;;;;;;10422343;28;20045;-58
2021/11/05 19:26:24;;;;;;;7.70;3.00;;;7.30;99.90;;;;;;10422068;28;20107;-58
2021/11/05 19:31:25;;;;;;;6.35;3.05;;;7.40;99.90;;;;;;10397407;28;20057;-57
2021/11/05 19:36:27;;;;;;;10.70;3.83;;;7.50;99.90;;;;;;10429809;28;20068;-57
2021/11/05 19:41:29;;;;;;;8.35;3.63;;;7.50;99.90;;;;;;10429348;28;20483;-58
2021/11/05 19:46:31;;;;;;;5.93;3.08;;;7.60;99.90;;;;;;10431296;28;20068;-59
2021/11/05 19:51:33;;;;;;;8.73;3.58;;;7.60;99.90;;;;;;10429146;28;20053;-59
2021/11/05 19:56:35;;;;;;;10.95;5.72;;;7.60;99.90;;;;;;10427169;28;20068;-59
2021/11/05 20:01:39;;;;;;;12.48;4.97;;;7.60;99.90;;;;;;10430505;28;20878;-59
2021/11/05 20:06:41;;;;;;;11.18;4.45;;;7.60;99.90;;;;;;10428194;28;20115;-59
2021/11/05 20:11:42;;;;;;;11.68;5.20;;;7.50;99.90;;;;;;10427463;28;20060;-58
2021/11/05 20:16:44;;;;;;;13.43;5.30;;;7.50;99.90;;;;;;10428787;28;20056;-59
2021/11/05 20:21:47;;;;;;;19.88;5.57;;;7.40;99.90;;;;;;10427484;28;20069;-59
2021/11/05 20:26:48;;;;;;;11.50;4.95;;;7.40;99.90;;;;;;10431743;28;20565;-59
2021/11/05 20:31:50;;;;;;;11.07;5.15;;;7.50;99.90;;;;;;10426790;28;20103;-59
2021/11/05 20:36:52;;;;;;;10.63;5.07;;;7.50;99.90;;;;;;10428061;28;20057;-60
2021/11/05 20:41:55;;;;;;;11.57;4.50;;;7.50;99.90;;;;;;10431308;28;20049;-58
2021/11/05 20:46:57;;;;;;;9.82;4.55;;;7.50;99.90;;;;;;10422785;28;20512;-59
2021/11/05 20:51:59;;;;;;;11.23;4.28;;;7.50;99.90;;;;;;10430160;28;20049;-59
2021/11/05 20:57:01;;;;;;;8.55;4.10;;;7.60;99.90;;;;;;10432011;28;20110;-59
2021/11/05 21:02:03;;;;;;;10.25;4.32;;;7.50;99.90;;;;;;10428712;28;20061;-59
2021/11/05 21:07:05;;;;;;;13.90;4.90;;;7.40;99.90;;;;;;10431525;28;20113;-59
2021/11/05 21:12:07;;;;;;;11.57;4.78;;;7.30;99.90;;;;;;10427241;28;20084;-59
2021/11/05 21:17:09;;;;;;;13.07;4.65;;;7.20;99.90;;;;;;10429484;28;20045;-59
2021/11/05 21:22:11;;;;;;;10.82;4.45;;;7.20;99.90;;;;;;10428074;28;20053;-59
2021/11/05 21:27:13;;;;;;;10.13;4.40;;;7.10;99.90;;;;;;10424952;28;20681;-58
2021/11/05 21:32:15;;;;;;;12.85;6.00;;;7.00;99.90;;;;;;10431490;28;20074;-59
2021/11/05 21:37:17;;;;;;;10.88;4.72;;;6.90;99.90;;;;;;10423490;28;20057;-58
2021/11/05 21:42:19;;;;;;;11.82;5.47;;;6.90;99.90;;;;;;10424016;28;20045;-59
2021/11/05 21:47:21;;;;;;;16.60;5.85;;;6.90;99.90;;;;;;10429315;28;20443;-58
2021/11/05 21:52:23;;;;;;;24.23;7.05;;;6.90;99.90;;;;;;10425410;28;20396;-59
2021/11/05 21:57:24;;;;;;;11.00;4.70;;;6.90;99.90;;;;;;10427181;28;20507;-59
2021/11/05 22:02:26;;;;;;;13.25;4.90;;;7.00;99.90;;;;;;10422557;28;20743;-59
2021/11/05 22:07:28;;;;;;;12.63;3.95;;;7.10;99.90;;;;;;10430187;28;20056;-58
2021/11/05 22:12:30;;;;;;;10.50;4.03;;;7.10;99.90;;;;;;10426376;28;20044;-59
2021/11/05 22:17:32;;;;;;;10.45;3.78;;;7.20;99.90;;;;;;10422305;28;20056;-59
2021/11/05 22:22:39;;;;;;;9.70;4.43;;;7.30;99.90;;;;;;10424174;28;20060;-59
2021/11/05 22:27:42;;;;;;;12.20;4.22;;;7.30;99.90;;;;;;10422676;28;20315;-59
2021/11/05 22:32:43;;;;;;;11.20;4.55;;;7.30;99.90;;;;;;10425876;28;20053;-58
2021/11/05 22:37:47;;;;;;;9.27;4.80;;;7.20;99.90;;;;;;10427124;28;20045;-59
2021/11/05 22:43:01;;;;;;;10.00;4.00;;;7.10;99.90;;;;;;10427508;28;20052;-59
2021/11/05 22:48:03;;;;;;;10.80;4.50;;;7.00;99.90;;;;;;10425242;28;20112;-59
2021/11/05 22:53:04;;;;;;;13.77;5.45;;;7.00;99.90;;;;;;10420141;28;20067;-60
2021/11/05 22:58:08;;;;;;;13.93;5.82;;;7.00;99.90;;;;;;10427771;28;20052;-59
2021/11/05 23:03:30;;;;;;;10.93;4.72;;;6.90;99.90;;;;;;10421356;28;20143;-58
2021/11/05 23:08:37;;;;;;;17.50;6.90;;;6.90;99.90;;;;;;10424356;28;20045;-59
2021/11/05 23:13:41;;;;;;;13.10;5.50;;;6.90;99.90;;;;;;10428102;28;20095;-59
2021/11/05 23:18:44;;;;;;;16.20;5.72;;;6.90;99.90;;;;;;10432133;28;20057;-59
2021/11/05 23:23:46;;;;;;;11.02;5.03;;;6.90;99.90;;;;;;10437783;28;20071;-59
2021/11/05 23:28:48;;;;;;;15.23;5.10;;;6.80;99.90;;;;;;10424736;28;20096;-59
2021/11/05 23:33:53;;;;;;;12.02;5.85;;;6.90;99.90;;;;;;10436717;28;20241;-59
2021/11/05 23:38:55;;;;;;;18.85;5.53;;;6.90;99.90;;;;;;10419495;28;20403;-59
2021/11/05 23:43:57;;;;;;;11.80;5.30;;;6.90;99.90;;;;;;10431159;28;20049;-58
2021/11/05 23:48:59;;;;;;;15.25;6.65;;;6.90;99.90;;;;;;10429675;28;20049;-59
2021/11/05 23:54:01;;;;;;;13.48;5.53;;;7.00;99.90;;;;;;10429551;28;20099;-59
2021/11/05 23:59:03;;;;;;;14.75;5.55;;;7.10;99.90;;;;;;10394755;28;21076;-58
